createdAt,value
2023-01-29T00:02:01.619Z,23.80
2023-01-29T00:04:29.118Z,13.20
2023-01-29T00:06:56.585Z,9.53
2023-01-29T00:09:24.030Z,8.13
2023-01-29T00:11:51.571Z,7.97
2023-01-29T00:14:19.084Z,14.90
2023-01-29T00:16:46.591Z,11.97
2023-01-29T00:19:15.491Z,10.07
2023-01-29T00:21:43.500Z,21.97
2023-01-29T00:24:11.117Z,15.07
2023-01-29T00:26:38.901Z,18.67
2023-01-29T00:29:06.548Z,13.43
2023-01-29T00:31:34.061Z,31.20
2023-01-29T00:34:01.644Z,10.17
2023-01-29T00:36:30.606Z,12.60
2023-01-29T00:38:59.729Z,10.03
2023-01-29T00:41:47.258Z,10.83
2023-01-29T00:44:31.954Z,14.50
2023-01-29T00:46:59.858Z,12.07
2023-01-29T00:49:27.414Z,11.63
2023-01-29T00:52:13.667Z,10.60
2023-01-29T00:54:41.099Z,10.20
2023-01-29T00:57:08.521Z,9.97
2023-01-29T00:59:35.939Z,12.10
2023-01-29T01:02:21.169Z,13.50
2023-01-29T01:04:48.665Z,13.50
2023-01-29T01:07:17.442Z,15.63
2023-01-29T01:10:02.114Z,14.33
2023-01-29T01:12:29.654Z,12.93
2023-01-29T01:14:57.075Z,11.50
2023-01-29T01:17:25.097Z,11.83
2023-01-29T01:19:52.741Z,13.63
2023-01-29T01:22:21.582Z,12.43
2023-01-29T01:24:49.189Z,12.30
2023-01-29T01:27:17.532Z,13.20
2023-01-29T01:29:44.935Z,12.47
2023-01-29T01:32:12.360Z,13.10
2023-01-29T01:34:39.834Z,12.93
2023-01-29T01:37:07.265Z,13.57
2023-01-29T01:39:35.997Z,12.93
2023-01-29T01:42:03.517Z,12.13
2023-01-29T01:44:53.351Z,12.47
2023-01-29T01:47:26.080Z,13.80
2023-01-29T01:49:55.524Z,12.60
2023-01-29T01:52:23.687Z,13.03
2023-01-29T01:54:54.994Z,18.60
2023-01-29T01:57:25.729Z,13.23
2023-01-29T01:59:57.537Z,13.43
2023-01-29T02:02:43.896Z,15.63
2023-01-29T02:05:30.696Z,19.97
2023-01-29T02:08:16.946Z,12.97
2023-01-29T02:10:47.602Z,13.43
2023-01-29T02:13:18.662Z,13.23
2023-01-29T02:15:48.688Z,13.00
2023-01-29T02:18:18.661Z,13.73
2023-01-29T02:20:57.877Z,16.03
2023-01-29T02:24:07.098Z,15.23
2023-01-29T02:26:51.686Z,14.30
2023-01-29T02:29:28.760Z,12.87
2023-01-29T02:32:06.293Z,13.13
2023-01-29T02:34:59.475Z,13.77
2023-01-29T02:37:35.995Z,12.27
2023-01-29T02:40:14.072Z,13.67
2023-01-29T02:42:48.165Z,33.07
2023-01-29T02:45:21.327Z,35.27
2023-01-29T02:47:57.070Z,31.33
2023-01-29T02:50:29.807Z,17.33
2023-01-29T02:53:03.462Z,17.67
2023-01-29T02:55:37.817Z,23.57
2023-01-29T02:58:12.224Z,16.33
2023-01-29T03:00:45.359Z,14.07
2023-01-29T03:03:17.325Z,13.90
2023-01-29T03:05:54.948Z,13.73
2023-01-29T03:08:36.719Z,13.13
2023-01-29T03:11:06.585Z,12.23
2023-01-29T03:13:41.257Z,14.27
2023-01-29T03:16:19.077Z,14.40
2023-01-29T03:18:50.959Z,12.03
2023-01-29T03:21:41.103Z,13.87
2023-01-29T03:24:28.896Z,13.87
2023-01-29T03:27:16.699Z,13.13
2023-01-29T03:30:04.201Z,13.50
2023-01-29T03:32:33.095Z,14.50
2023-01-29T03:35:05.444Z,11.77
2023-01-29T03:37:37.432Z,14.53
2023-01-29T03:40:06.273Z,12.30
2023-01-29T03:42:45.319Z,14.17
2023-01-29T03:45:18.311Z,14.57
2023-01-29T03:47:52.500Z,14.57
2023-01-29T03:50:34.339Z,11.93
2023-01-29T03:53:05.919Z,15.07
2023-01-29T03:55:38.778Z,13.77
2023-01-29T03:58:16.813Z,15.10
2023-01-29T04:00:53.627Z,14.30
2023-01-29T04:03:26.233Z,13.10
2023-01-29T04:06:05.400Z,13.43
2023-01-29T04:08:37.409Z,14.70
2023-01-29T04:11:11.323Z,14.53
2023-01-29T04:13:39.795Z,12.57
2023-01-29T04:16:12.659Z,15.17
2023-01-29T04:18:41.538Z,15.23
2023-01-29T04:21:09.064Z,15.47
2023-01-29T04:23:36.503Z,15.33
2023-01-29T04:26:21.677Z,16.33
2023-01-29T04:28:59.732Z,16.00
2023-01-29T04:31:31.744Z,16.37
2023-01-29T04:34:12.174Z,15.43
2023-01-29T04:36:46.263Z,16.57
2023-01-29T04:39:19.623Z,14.10
2023-01-29T04:41:54.195Z,17.07
2023-01-29T04:44:27.216Z,15.20
2023-01-29T04:47:05.586Z,16.37
2023-01-29T04:49:41.627Z,15.87
2023-01-29T04:52:13.972Z,16.33
2023-01-29T04:54:53.340Z,15.60
2023-01-29T04:57:26.646Z,17.27
2023-01-29T05:00:02.545Z,14.83
2023-01-29T05:02:32.649Z,19.20
2023-01-29T05:05:01.781Z,17.97
2023-01-29T05:07:31.405Z,17.57
2023-01-29T05:09:59.293Z,17.40
2023-01-29T05:12:29.754Z,17.70
2023-01-29T05:15:02.864Z,18.50
2023-01-29T05:17:30.684Z,18.33
2023-01-29T05:19:58.247Z,18.17
2023-01-29T05:22:28.002Z,17.50
2023-01-29T05:24:55.630Z,18.43
2023-01-29T05:27:48.564Z,17.97
2023-01-29T05:30:16.706Z,17.97
2023-01-29T05:32:44.396Z,17.93
2023-01-29T05:35:11.884Z,17.10
2023-01-29T05:37:40.630Z,18.27
2023-01-29T05:40:09.751Z,17.20
2023-01-29T05:42:37.240Z,17.37
2023-01-29T05:45:05.427Z,18.57
2023-01-29T05:47:32.850Z,18.47
2023-01-29T05:50:00.319Z,18.13
2023-01-29T05:52:27.797Z,16.77
2023-01-29T05:54:56.675Z,18.30
2023-01-29T05:57:24.224Z,18.30
2023-01-29T05:59:51.685Z,18.27
2023-01-29T06:02:19.133Z,17.00
2023-01-29T06:04:46.565Z,19.77
2023-01-29T06:07:14.057Z,19.80
2023-01-29T06:09:41.505Z,18.50
2023-01-29T06:12:10.308Z,20.23
2023-01-29T06:14:37.721Z,17.80
2023-01-29T06:17:05.337Z,19.50
2023-01-29T06:19:32.749Z,22.10
2023-01-29T06:22:00.237Z,21.27
2023-01-29T06:24:27.700Z,18.97
2023-01-29T06:26:55.149Z,19.27
2023-01-29T06:29:23.863Z,17.33
2023-01-29T06:31:51.354Z,19.80
2023-01-29T06:34:18.991Z,19.93
2023-01-29T06:36:46.415Z,19.90
2023-01-29T06:39:13.981Z,18.97
2023-01-29T06:41:41.421Z,18.30
2023-01-29T06:44:08.956Z,18.83
2023-01-29T06:46:37.744Z,17.97
2023-01-29T06:49:05.195Z,20.73
2023-01-29T06:51:32.665Z,19.87
2023-01-29T06:54:00.512Z,21.50
2023-01-29T06:56:28.210Z,20.57
2023-01-29T06:58:55.726Z,19.00
2023-01-29T07:01:35.077Z,20.27
2023-01-29T07:04:05.210Z,18.83
2023-01-29T07:06:32.749Z,18.83
2023-01-29T07:09:00.231Z,19.70
2023-01-29T07:11:27.655Z,20.83
2023-01-29T07:13:55.032Z,18.27
2023-01-29T07:16:23.428Z,18.90
2023-01-29T07:18:50.912Z,18.10
2023-01-29T07:21:19.696Z,19.50
2023-01-29T07:23:47.189Z,20.17
2023-01-29T07:26:14.667Z,20.40
2023-01-29T07:28:42.220Z,20.63
2023-01-29T07:31:13.380Z,20.50
2023-01-29T07:33:40.906Z,19.90
2023-01-29T07:36:09.207Z,22.13
2023-01-29T07:38:38.028Z,19.97
2023-01-29T07:41:05.696Z,21.33
2023-01-29T07:43:33.454Z,20.33
2023-01-29T07:46:03.248Z,20.50
2023-01-29T07:48:31.199Z,21.37
2023-01-29T07:50:59.329Z,20.97
2023-01-29T07:53:28.092Z,20.30
2023-01-29T07:55:57.307Z,22.53
2023-01-29T07:58:24.783Z,20.73
2023-01-29T08:00:52.362Z,20.60
2023-01-29T08:03:21.136Z,19.90
2023-01-29T08:05:48.779Z,21.47
2023-01-29T08:08:16.423Z,20.07
2023-01-29T08:10:44.234Z,20.97
2023-01-29T08:13:13.007Z,19.10
2023-01-29T08:15:44.114Z,22.53
2023-01-29T08:18:11.671Z,20.80
2023-01-29T08:20:39.391Z,22.63
2023-01-29T08:23:08.113Z,20.50
2023-01-29T08:25:36.642Z,22.27
2023-01-29T08:28:05.438Z,21.13
2023-01-29T08:30:35.544Z,21.70
2023-01-29T08:33:04.847Z,20.90
2023-01-29T08:35:32.543Z,20.50
2023-01-29T08:38:02.125Z,21.27
2023-01-29T08:40:31.616Z,21.13
2023-01-29T08:43:02.093Z,21.43
2023-01-29T08:45:30.804Z,20.93
2023-01-29T08:47:59.542Z,19.77
2023-01-29T08:50:27.261Z,23.80
2023-01-29T08:52:58.716Z,22.17
2023-01-29T08:55:26.753Z,20.67
2023-01-29T08:57:54.471Z,21.87
2023-01-29T09:00:22.611Z,22.93
2023-01-29T09:02:50.027Z,22.27
2023-01-29T09:05:19.595Z,20.93
2023-01-29T09:07:47.239Z,22.30
2023-01-29T09:10:14.757Z,21.37
2023-01-29T09:12:42.363Z,21.77
2023-01-29T09:15:10.911Z,20.37
2023-01-29T09:17:38.326Z,20.17
2023-01-29T09:20:06.999Z,22.40
2023-01-29T09:22:36.180Z,22.00
2023-01-29T09:25:03.678Z,19.07
2023-01-29T09:27:31.099Z,20.83
2023-01-29T09:29:58.615Z,20.53
2023-01-29T09:32:52.207Z,19.67
2023-01-29T09:35:13.972Z,21.00
2023-01-29T09:37:42.884Z,18.23
2023-01-29T09:40:19.189Z,19.13
2023-01-29T09:42:53.316Z,19.70
2023-01-29T09:45:24.964Z,21.00
2023-01-29T09:47:54.471Z,20.40
2023-01-29T09:50:27.323Z,17.47
2023-01-29T09:52:59.897Z,18.53
2023-01-29T09:55:29.760Z,19.77
2023-01-29T09:57:59.352Z,19.13
2023-01-29T10:00:35.022Z,17.47
2023-01-29T10:03:28.325Z,19.03
2023-01-29T10:06:11.721Z,17.77
2023-01-29T10:09:16.109Z,17.53
2023-01-29T10:11:52.694Z,17.27
2023-01-29T10:14:28.890Z,17.03
2023-01-29T10:17:09.149Z,18.27
2023-01-29T10:19:57.673Z,17.23
2023-01-29T10:22:53.644Z,16.57
2023-01-29T10:25:24.172Z,17.33
2023-01-29T10:27:54.925Z,16.33
2023-01-29T10:30:31.605Z,17.87
2023-01-29T10:33:02.341Z,16.93
2023-01-29T10:35:34.108Z,15.40
2023-01-29T10:38:15.632Z,16.03
2023-01-29T10:40:50.093Z,17.00
2023-01-29T10:43:23.038Z,16.63
2023-01-29T10:45:58.201Z,15.10
2023-01-29T10:48:44.002Z,15.33
2023-01-29T10:51:23.774Z,15.77
2023-01-29T10:54:03.096Z,15.20
2023-01-29T10:56:43.975Z,14.23
2023-01-29T10:59:32.015Z,14.73
2023-01-29T11:02:00.182Z,15.50
2023-01-29T11:04:29.328Z,14.80
2023-01-29T11:06:57.390Z,17.10
2023-01-29T11:09:33.309Z,16.07
2023-01-29T11:12:06.796Z,17.23
2023-01-29T11:14:43.936Z,14.43
2023-01-29T11:17:16.650Z,15.07
2023-01-29T11:19:46.553Z,15.37
2023-01-29T11:22:16.178Z,15.07
2023-01-29T11:24:43.680Z,14.60
2023-01-29T11:27:25.915Z,14.73
2023-01-29T11:29:54.523Z,13.57
2023-01-29T11:32:31.040Z,15.47
2023-01-29T11:35:00.538Z,13.23
2023-01-29T11:37:37.099Z,12.27
2023-01-29T11:40:30.390Z,14.20
2023-01-29T11:43:23.480Z,13.03
2023-01-29T11:45:54.539Z,13.17
2023-01-29T11:48:24.098Z,14.30
2023-01-29T11:50:57.882Z,15.43
2023-01-29T11:53:34.923Z,13.73
2023-01-29T11:56:06.565Z,15.33
2023-01-29T11:58:45.129Z,14.48
2023-01-29T12:01:13.966Z,14.07
2023-01-29T12:03:44.651Z,13.30
2023-01-29T12:06:19.698Z,13.23
2023-01-29T12:08:55.749Z,12.83
2023-01-29T12:11:29.079Z,14.47
2023-01-29T12:13:59.650Z,15.10
2023-01-29T12:16:32.910Z,12.73
2023-01-29T12:19:10.052Z,14.63
2023-01-29T12:21:44.381Z,13.00
2023-01-29T12:24:23.953Z,13.60
2023-01-29T12:26:56.047Z,12.90
2023-01-29T12:29:34.746Z,12.90
2023-01-29T12:32:13.156Z,12.50
2023-01-29T12:34:47.572Z,14.60
2023-01-29T12:37:22.768Z,12.57
2023-01-29T12:39:51.976Z,12.83
2023-01-29T12:42:22.505Z,13.90
2023-01-29T12:44:53.995Z,14.57
2023-01-29T12:47:27.237Z,14.27
2023-01-29T12:49:58.140Z,14.60
2023-01-29T12:52:37.897Z,14.40
2023-01-29T12:55:12.399Z,14.33
2023-01-29T12:57:45.581Z,14.07
2023-01-29T13:00:19.336Z,14.57
2023-01-29T13:02:51.108Z,15.83
2023-01-29T13:05:24.156Z,14.40
2023-01-29T13:07:57.701Z,13.93
2023-01-29T13:10:30.703Z,14.63
2023-01-29T13:13:02.575Z,14.47
2023-01-29T13:15:36.104Z,18.97
2023-01-29T13:18:24.461Z,18.97
2023-01-29T13:20:52.634Z,18.07
2023-01-29T13:23:23.040Z,16.73
2023-01-29T13:25:52.745Z,15.00
2023-01-29T13:28:22.360Z,16.20
2023-01-29T13:31:13.696Z,15.37
2023-01-29T13:33:42.908Z,14.47
2023-01-29T13:36:17.252Z,14.83
2023-01-29T13:38:45.973Z,14.03
2023-01-29T13:41:15.767Z,13.50
2023-01-29T13:43:49.670Z,14.20
2023-01-29T13:46:21.335Z,14.90
2023-01-29T13:48:52.196Z,15.37
2023-01-29T13:51:23.593Z,15.93
2023-01-29T13:53:56.664Z,15.57
2023-01-29T13:56:47.819Z,14.90
2023-01-29T13:59:23.821Z,15.80
2023-01-29T14:02:23.488Z,15.87
2023-01-29T14:04:51.091Z,15.00
2023-01-29T14:07:48.617Z,21.80
2023-01-29T14:10:18.040Z,16.50
2023-01-29T14:12:47.970Z,17.67
2023-01-29T14:15:21.156Z,16.73
2023-01-29T14:18:07.195Z,17.13
2023-01-29T14:20:45.708Z,17.30
2023-01-29T14:23:25.061Z,19.93
2023-01-29T14:25:52.732Z,19.50
2023-01-29T14:28:24.386Z,19.50
2023-01-29T14:30:53.112Z,19.70
2023-01-29T14:33:28.908Z,20.07
2023-01-29T14:35:58.888Z,20.50
2023-01-29T14:38:29.466Z,19.90
2023-01-29T14:41:06.772Z,19.30
2023-01-29T14:43:34.335Z,18.53
2023-01-29T14:46:34.981Z,20.73
2023-01-29T14:49:03.764Z,21.13
2023-01-29T14:51:37.572Z,20.57
2023-01-29T14:54:14.997Z,20.37
2023-01-29T14:56:49.433Z,23.23
2023-01-29T14:59:21.801Z,21.00
2023-01-29T15:01:54.016Z,23.67
2023-01-29T15:04:27.815Z,22.70
2023-01-29T15:07:01.776Z,22.80
2023-01-29T15:09:37.316Z,22.10
2023-01-29T15:12:17.263Z,22.80
2023-01-29T15:14:51.542Z,19.23
2023-01-29T15:17:26.583Z,20.63
2023-01-29T15:19:56.696Z,20.33
2023-01-29T15:22:26.057Z,20.10
2023-01-29T15:25:08.920Z,22.40
2023-01-29T15:27:36.534Z,20.00
2023-01-29T15:30:08.177Z,18.53
2023-01-29T15:32:38.372Z,18.97
2023-01-29T15:35:10.997Z,15.37
2023-01-29T15:37:38.908Z,18.87
2023-01-29T15:40:16.203Z,18.37
2023-01-29T15:42:46.577Z,20.47
2023-01-29T15:45:25.848Z,19.73
2023-01-29T15:47:55.398Z,18.03
2023-01-29T15:50:24.639Z,17.63
2023-01-29T15:52:54.064Z,21.27
2023-01-29T15:55:23.211Z,19.20
2023-01-29T15:57:51.170Z,21.60
2023-01-29T16:00:23.931Z,19.33
2023-01-29T16:02:51.870Z,18.87
2023-01-29T16:05:22.958Z,20.60
2023-01-29T16:07:52.722Z,20.63
2023-01-29T16:10:21.839Z,19.50
2023-01-29T16:12:52.156Z,31.47
2023-01-29T16:15:29.829Z,21.07
2023-01-29T16:17:57.990Z,20.57
2023-01-29T16:20:34.276Z,19.57
2023-01-29T16:23:03.281Z,22.20
2023-01-29T16:25:31.542Z,19.17
2023-01-29T16:27:59.326Z,19.20
2023-01-29T16:30:28.669Z,17.60
2023-01-29T16:33:03.495Z,18.53
2023-01-29T16:35:31.176Z,19.83
2023-01-29T16:38:03.597Z,18.40
2023-01-29T16:40:34.020Z,18.67
2023-01-29T16:43:37.473Z,19.10
2023-01-29T16:46:19.040Z,18.47
2023-01-29T16:48:47.621Z,18.47
2023-01-29T16:51:18.442Z,17.60
2023-01-29T16:53:56.298Z,18.53
2023-01-29T16:56:26.801Z,17.57
2023-01-29T16:58:55.983Z,16.97
2023-01-29T17:01:26.979Z,17.03
2023-01-29T17:04:00.158Z,17.57
2023-01-29T17:06:28.679Z,16.67
2023-01-29T17:08:56.647Z,18.57
2023-01-29T17:11:31.070Z,18.13
2023-01-29T17:13:58.586Z,17.73
2023-01-29T17:16:29.001Z,17.57
2023-01-29T17:18:56.749Z,17.37
2023-01-29T17:21:24.743Z,16.00
2023-01-29T17:23:52.759Z,16.73
2023-01-29T17:26:21.420Z,16.17
2023-01-29T17:28:52.636Z,19.57
2023-01-29T17:31:20.243Z,21.13
2023-01-29T17:33:48.370Z,15.93
2023-01-29T17:36:17.669Z,16.43
2023-01-29T17:38:46.011Z,17.50
2023-01-29T17:41:19.551Z,16.97
2023-01-29T17:43:47.048Z,17.20
2023-01-29T17:46:17.800Z,17.70
2023-01-29T17:48:49.057Z,19.17
2023-01-29T17:51:18.368Z,18.63
2023-01-29T17:53:47.106Z,16.37
2023-01-29T17:56:17.788Z,15.30
2023-01-29T17:58:45.307Z,16.73
2023-01-29T18:01:12.759Z,16.43
2023-01-29T18:03:41.779Z,16.97
2023-01-29T18:06:10.267Z,16.73
2023-01-29T18:08:39.629Z,18.13
2023-01-29T18:11:07.190Z,17.33
2023-01-29T18:13:36.039Z,20.87
2023-01-29T18:16:03.530Z,16.50
2023-01-29T18:18:31.014Z,24.77
2023-01-29T18:20:59.796Z,15.80
2023-01-29T18:23:29.380Z,14.63
2023-01-29T18:25:57.711Z,15.77
2023-01-29T18:28:26.031Z,28.83
2023-01-29T18:30:53.517Z,17.03
2023-01-29T18:33:21.074Z,17.27
2023-01-29T18:35:48.983Z,16.03
2023-01-29T18:38:18.121Z,16.13
2023-01-29T18:40:45.600Z,18.50
2023-01-29T18:43:14.092Z,15.23
2023-01-29T18:45:41.914Z,16.87
2023-01-29T18:48:09.710Z,13.60
2023-01-29T18:50:37.341Z,14.70
2023-01-29T18:53:05.119Z,14.23
2023-01-29T18:55:34.062Z,13.80
2023-01-29T18:58:26.714Z,15.00
2023-01-29T19:00:48.974Z,13.23
2023-01-29T19:03:16.386Z,15.93
2023-01-29T19:05:44.038Z,17.33
2023-01-29T19:08:11.767Z,16.30
2023-01-29T19:10:41.532Z,16.37
2023-01-29T19:13:09.212Z,14.00
2023-01-29T19:15:36.993Z,16.40
2023-01-29T19:18:04.652Z,15.87
2023-01-29T19:20:32.058Z,24.00
2023-01-29T19:22:59.555Z,18.23
2023-01-29T19:25:27.014Z,17.07
2023-01-29T19:27:55.793Z,14.73
2023-01-29T19:30:23.349Z,15.53
2023-01-29T19:32:50.779Z,15.50
2023-01-29T19:35:18.464Z,16.73
2023-01-29T19:37:46.254Z,20.23
2023-01-29T19:40:14.752Z,14.97
2023-01-29T19:42:42.950Z,12.60
2023-01-29T19:45:11.993Z,13.03
2023-01-29T19:47:40.563Z,12.20
2023-01-29T19:50:09.341Z,12.50
2023-01-29T19:52:52.277Z,12.27
2023-01-29T19:55:21.276Z,13.97
2023-01-29T19:57:49.168Z,11.03
2023-01-29T20:00:19.586Z,11.40
2023-01-29T20:02:47.085Z,11.00
2023-01-29T20:05:18.289Z,12.50
2023-01-29T20:07:46.039Z,19.17
2023-01-29T20:10:17.250Z,12.47
2023-01-29T20:12:45.435Z,18.50
2023-01-29T20:15:13.415Z,13.50
2023-01-29T20:17:43.467Z,13.50
2023-01-29T20:20:11.931Z,12.63
2023-01-29T20:22:39.343Z,12.10
2023-01-29T20:25:07.727Z,9.40
2023-01-29T20:27:35.345Z,11.10
2023-01-29T20:30:02.783Z,12.20
2023-01-29T20:32:31.676Z,14.03
2023-01-29T20:35:00.445Z,12.30
2023-01-29T20:37:28.032Z,11.70
2023-01-29T20:39:55.772Z,13.77
2023-01-29T20:42:23.201Z,14.70
2023-01-29T20:44:50.644Z,9.17
2023-01-29T20:47:18.120Z,9.20
2023-01-29T20:49:45.640Z,10.23
2023-01-29T20:52:14.352Z,15.30
2023-01-29T20:54:41.783Z,34.00
2023-01-29T20:57:09.293Z,12.60
2023-01-29T20:59:36.701Z,15.07
2023-01-29T21:02:04.209Z,12.27
2023-01-29T21:04:32.059Z,13.60
2023-01-29T21:06:59.631Z,18.13
2023-01-29T21:09:28.416Z,10.93
2023-01-29T21:11:55.933Z,11.13
2023-01-29T21:14:23.448Z,10.40
2023-01-29T21:16:50.966Z,9.90
2023-01-29T21:19:18.401Z,8.90
2023-01-29T21:21:45.916Z,9.07
2023-01-29T21:24:14.980Z,7.00
2023-01-29T21:26:43.780Z,7.97
2023-01-29T21:29:11.853Z,7.40
2023-01-29T21:31:39.473Z,5.67
2023-01-29T21:34:06.924Z,9.20
2023-01-29T21:36:35.551Z,11.50
2023-01-29T21:39:16.346Z,8.07
2023-01-29T21:42:02.600Z,7.23
2023-01-29T21:44:30.190Z,6.90
2023-01-29T21:46:57.635Z,5.80
2023-01-29T21:49:25.330Z,6.53
2023-01-29T21:51:53.037Z,9.07
2023-01-29T21:54:20.451Z,9.57
2023-01-29T21:56:49.186Z,10.40
2023-01-29T21:59:16.565Z,9.87
2023-01-29T22:01:44.005Z,9.77
2023-01-29T22:04:11.588Z,9.80
2023-01-29T22:06:38.993Z,10.30
2023-01-29T22:09:06.421Z,9.70
2023-01-29T22:11:34.056Z,9.23
2023-01-29T22:14:02.836Z,10.07
2023-01-29T22:16:30.356Z,9.17
2023-01-29T22:18:57.822Z,9.83
2023-01-29T22:21:25.286Z,11.67
2023-01-29T22:23:52.725Z,9.53
2023-01-29T22:26:20.200Z,9.47
2023-01-29T22:28:47.641Z,12.63
2023-01-29T22:31:16.414Z,12.40
2023-01-29T22:33:44.170Z,11.83
2023-01-29T22:36:11.659Z,10.47
2023-01-29T22:38:39.056Z,10.40
2023-01-29T22:41:06.488Z,10.27
2023-01-29T22:43:33.890Z,9.90
2023-01-29T22:46:01.572Z,10.83
2023-01-29T22:48:30.733Z,10.73
2023-01-29T22:51:09.871Z,10.13
2023-01-29T22:53:38.391Z,9.63
2023-01-29T22:56:07.455Z,9.93
2023-01-29T22:58:35.295Z,10.53
2023-01-29T23:01:03.079Z,9.70
2023-01-29T23:03:31.849Z,10.23
2023-01-29T23:05:59.354Z,8.83
2023-01-29T23:08:26.836Z,9.70
2023-01-29T23:10:54.303Z,9.10
2023-01-29T23:13:21.772Z,9.40
2023-01-29T23:16:00.283Z,9.80
2023-01-29T23:18:27.964Z,11.27
2023-01-29T23:20:58.693Z,9.73
2023-01-29T23:23:26.250Z,9.53
2023-01-29T23:26:16.019Z,9.73
2023-01-29T23:28:43.805Z,9.90
2023-01-29T23:31:11.780Z,10.20
2023-01-29T23:33:39.276Z,8.87
2023-01-29T23:36:09.603Z,10.43
2023-01-29T23:38:37.068Z,10.07
2023-01-29T23:41:04.633Z,10.87
2023-01-29T23:43:32.170Z,8.93
2023-01-29T23:45:59.738Z,9.87
2023-01-29T23:48:27.124Z,9.87
2023-01-29T23:50:54.604Z,9.80
2023-01-29T23:53:23.380Z,10.33
2023-01-29T23:55:58.300Z,9.80
2023-01-29T23:58:26.098Z,10.90
